sensor_id;sensor_type;location;lat;lon;timestamp;temperature;humidity
7002;DHT22;3541;53.230;10.518;2022-11-20T00:00:14;2.70;99.90
7002;DHT22;3541;53.230;10.518;2022-11-20T00:02:41;2.70;99.90
7002;DHT22;3541;53.230;10.518;2022-11-20T00:05:08;2.70;99.90
7002;DHT22;3541;53.230;10.518;2022-11-20T00:07:35;2.70;99.90
7002;DHT22;3541;53.230;10.518;2022-11-20T00:10:03;2.70;99.90
7002;DHT22;3541;53.230;10.518;2022-11-20T00:12:31;2.60;99.90
7002;DHT22;3541;53.230;10.518;2022-11-20T00:14:58;2.60;99.90
7002;DHT22;3541;53.230;10.518;2022-11-20T00:17:24;2.60;99.90
7002;DHT22;3541;53.230;10.518;2022-11-20T00:19:51;2.60;99.90
7002;DHT22;3541;53.230;10.518;2022-11-20T00:22:17;2.60;99.90
7002;DHT22;3541;53.230;10.518;2022-11-20T00:24:44;2.50;99.90
7002;DHT22;3541;53.230;10.518;2022-11-20T00:27:12;2.50;99.90
7002;DHT22;3541;53.230;10.518;2022-11-20T00:29:38;2.50;99.90
7002;DHT22;3541;53.230;10.518;2022-11-20T00:32:05;2.50;99.90
7002;DHT22;3541;53.230;10.518;2022-11-20T00:34:31;2.50;99.90
7002;DHT22;3541;53.230;10.518;2022-11-20T00:36:58;2.40;99.90
7002;DHT22;3541;53.230;10.518;2022-11-20T00:39:24;2.50;99.90
7002;DHT22;3541;53.230;10.518;2022-11-20T00:41:51;2.40;99.90
7002;DHT22;3541;53.230;10.518;2022-11-20T00:44:19;2.50;99.90
7002;DHT22;3541;53.230;10.518;2022-11-20T00:46:46;2.30;99.90
7002;DHT22;3541;53.230;10.518;2022-11-20T00:49:12;2.30;99.90
7002;DHT22;3541;53.230;10.518;2022-11-20T00:51:39;2.40;99.90
7002;DHT22;3541;53.230;10.518;2022-11-20T00:54:05;2.30;99.90
7002;DHT22;3541;53.230;10.518;2022-11-20T00:56:32;2.40;99.90
7002;DHT22;3541;53.230;10.518;2022-11-20T00:59:00;2.20;99.90
7002;DHT22;3541;53.230;10.518;2022-11-20T01:01:29;2.20;99.90
7002;DHT22;3541;53.230;10.518;2022-11-20T01:03:57;2.10;99.90
7002;DHT22;3541;53.230;10.518;2022-11-20T01:06:25;2.00;99.90
7002;DHT22;3541;53.230;10.518;2022-11-20T01:08:53;2.10;99.90
7002;DHT22;3541;53.230;10.518;2022-11-20T01:11:22;2.10;99.90
7002;DHT22;3541;53.230;10.518;2022-11-20T01:13:50;2.10;99.90
7002;DHT22;3541;53.230;10.518;2022-11-20T01:16:20;2.30;99.90
7002;DHT22;3541;53.230;10.518;2022-11-20T01:18:51;2.30;99.90
7002;DHT22;3541;53.230;10.518;2022-11-20T01:21:20;2.30;99.90
7002;DHT22;3541;53.230;10.518;2022-11-20T01:23:48;2.20;99.90
7002;DHT22;3541;53.230;10.518;2022-11-20T01:26:17;2.30;99.90
7002;DHT22;3541;53.230;10.518;2022-11-20T01:28:45;2.30;99.90
7002;DHT22;3541;53.230;10.518;2022-11-20T01:31:13;2.40;99.90
7002;DHT22;3541;53.230;10.518;2022-11-20T01:33:40;2.40;99.90
7002;DHT22;3541;53.230;10.518;2022-11-20T01:36:09;2.30;99.90
7002;DHT22;3541;53.230;10.518;2022-11-20T01:38:36;2.20;99.90
7002;DHT22;3541;53.230;10.518;2022-11-20T01:41:04;2.30;99.90
7002;DHT22;3541;53.230;10.518;2022-11-20T01:43:31;2.20;99.90
7002;DHT22;3541;53.230;10.518;2022-11-20T01:46:00;2.10;99.90
7002;DHT22;3541;53.230;10.518;2022-11-20T01:48:32;2.00;99.90
7002;DHT22;3541;53.230;10.518;2022-11-20T01:51:00;1.90;99.90
7002;DHT22;3541;53.230;10.518;2022-11-20T01:53:33;2.00;99.90
7002;DHT22;3541;53.230;10.518;2022-11-20T01:56:03;2.10;99.90
7002;DHT22;3541;53.230;10.518;2022-11-20T01:58:34;2.10;99.90
7002;DHT22;3541;53.230;10.518;2022-11-20T02:01:02;2.10;99.90
7002;DHT22;3541;53.230;10.518;2022-11-20T02:03:29;2.10;99.90
7002;DHT22;3541;53.230;10.518;2022-11-20T02:06:01;2.10;99.90
7002;DHT22;3541;53.230;10.518;2022-11-20T02:08:31;2.20;99.90
7002;DHT22;3541;53.230;10.518;2022-11-20T02:10:58;2.30;99.90
7002;DHT22;3541;53.230;10.518;2022-11-20T02:13:25;2.30;99.90
7002;DHT22;3541;53.230;10.518;2022-11-20T02:16:12;2.30;99.90
7002;DHT22;3541;53.230;10.518;2022-11-20T02:18:39;2.30;99.90
7002;DHT22;3541;53.230;10.518;2022-11-20T02:21:10;2.20;99.90
7002;DHT22;3541;53.230;10.518;2022-11-20T02:23:58;2.20;99.90
7002;DHT22;3541;53.230;10.518;2022-11-20T02:26:27;2.20;99.90
7002;DHT22;3541;53.230;10.518;2022-11-20T02:28:55;2.30;99.90
7002;DHT22;3541;53.230;10.518;2022-11-20T02:31:22;2.20;99.90
7002;DHT22;3541;53.230;10.518;2022-11-20T02:33:54;1.90;99.90
7002;DHT22;3541;53.230;10.518;2022-11-20T02:36:22;1.90;99.90
7002;DHT22;3541;53.230;10.518;2022-11-20T02:38:49;1.90;99.90
7002;DHT22;3541;53.230;10.518;2022-11-20T02:41:19;2.00;99.90
7002;DHT22;3541;53.230;10.518;2022-11-20T02:43:46;2.00;99.90
7002;DHT22;3541;53.230;10.518;2022-11-20T02:46:13;1.90;99.90
7002;DHT22;3541;53.230;10.518;2022-11-20T02:48:40;2.00;99.90
7002;DHT22;3541;53.230;10.518;2022-11-20T02:51:06;2.00;99.90
7002;DHT22;3541;53.230;10.518;2022-11-20T02:53:33;2.10;99.90
7002;DHT22;3541;53.230;10.518;2022-11-20T02:55:59;2.10;99.90
7002;DHT22;3541;53.230;10.518;2022-11-20T02:58:27;1.90;99.90
7002;DHT22;3541;53.230;10.518;2022-11-20T03:00:54;1.90;99.90
7002;DHT22;3541;53.230;10.518;2022-11-20T03:03:20;1.90;99.90
7002;DHT22;3541;53.230;10.518;2022-11-20T03:05:47;1.90;99.90
7002;DHT22;3541;53.230;10.518;2022-11-20T03:08:14;1.90;99.90
7002;DHT22;3541;53.230;10.518;2022-11-20T03:10:40;1.80;99.90
7002;DHT22;3541;53.230;10.518;2022-11-20T03:13:07;1.80;99.90
7002;DHT22;3541;53.230;10.518;2022-11-20T03:15:35;1.90;99.90
7002;DHT22;3541;53.230;10.518;2022-11-20T03:18:02;1.90;99.90
7002;DHT22;3541;53.230;10.518;2022-11-20T03:20:29;1.90;99.90
7002;DHT22;3541;53.230;10.518;2022-11-20T03:22:55;1.70;99.90
7002;DHT22;3541;53.230;10.518;2022-11-20T03:25:22;1.70;99.90
7002;DHT22;3541;53.230;10.518;2022-11-20T03:27:49;1.70;99.90
7002;DHT22;3541;53.230;10.518;2022-11-20T03:30:15;1.80;99.90
7002;DHT22;3541;53.230;10.518;2022-11-20T03:32:43;1.80;99.90
7002;DHT22;3541;53.230;10.518;2022-11-20T03:35:10;1.80;99.90
7002;DHT22;3541;53.230;10.518;2022-11-20T03:37:36;1.90;99.90
7002;DHT22;3541;53.230;10.518;2022-11-20T03:40:04;1.90;99.90
7002;DHT22;3541;53.230;10.518;2022-11-20T03:42:31;2.00;99.90
7002;DHT22;3541;53.230;10.518;2022-11-20T03:45:13;1.90;99.90
7002;DHT22;3541;53.230;10.518;2022-11-20T03:47:40;1.90;99.90
7002;DHT22;3541;53.230;10.518;2022-11-20T03:50:09;1.80;99.90
7002;DHT22;3541;53.230;10.518;2022-11-20T03:52:37;1.70;99.90
7002;DHT22;3541;53.230;10.518;2022-11-20T03:55:04;1.80;99.90
7002;DHT22;3541;53.230;10.518;2022-11-20T03:57:31;1.90;99.90
7002;DHT22;3541;53.230;10.518;2022-11-20T03:59:58;1.80;99.90
7002;DHT22;3541;53.230;10.518;2022-11-20T04:02:24;1.80;99.90
7002;DHT22;3541;53.230;10.518;2022-11-20T04:04:51;1.80;99.90
7002;DHT22;3541;53.230;10.518;2022-11-20T04:07:19;1.90;99.90
7002;DHT22;3541;53.230;10.518;2022-11-20T04:09:46;1.90;99.90
7002;DHT22;3541;53.230;10.518;2022-11-20T04:12:13;1.90;99.90
7002;DHT22;3541;53.230;10.518;2022-11-20T04:14:40;1.90;99.90
7002;DHT22;3541;53.230;10.518;2022-11-20T04:17:06;1.90;99.90
7002;DHT22;3541;53.230;10.518;2022-11-20T04:19:33;1.80;99.90
7002;DHT22;3541;53.230;10.518;2022-11-20T04:21:59;1.90;99.90
7002;DHT22;3541;53.230;10.518;2022-11-20T04:24:27;2.00;99.90
7002;DHT22;3541;53.230;10.518;2022-11-20T04:26:54;2.00;99.90
7002;DHT22;3541;53.230;10.518;2022-11-20T04:29:20;2.00;99.90
7002;DHT22;3541;53.230;10.518;2022-11-20T04:31:47;2.10;99.90
7002;DHT22;3541;53.230;10.518;2022-11-20T04:34:14;2.00;99.90
7002;DHT22;3541;53.230;10.518;2022-11-20T04:36:40;2.00;99.90
7002;DHT22;3541;53.230;10.518;2022-11-20T04:39:12;1.90;99.90
7002;DHT22;3541;53.230;10.518;2022-11-20T04:41:41;1.80;99.90
7002;DHT22;3541;53.230;10.518;2022-11-20T04:44:08;1.90;99.90
7002;DHT22;3541;53.230;10.518;2022-11-20T04:46:36;1.80;99.90
7002;DHT22;3541;53.230;10.518;2022-11-20T04:49:04;1.80;99.90
7002;DHT22;3541;53.230;10.518;2022-11-20T04:51:31;1.80;99.90
7002;DHT22;3541;53.230;10.518;2022-11-20T04:53:57;1.90;99.90
7002;DHT22;3541;53.230;10.518;2022-11-20T04:56:24;1.90;99.90
7002;DHT22;3541;53.230;10.518;2022-11-20T04:58:52;1.90;99.90
7002;DHT22;3541;53.230;10.518;2022-11-20T05:01:21;1.80;99.90
7002;DHT22;3541;53.230;10.518;2022-11-20T05:03:48;1.90;99.90
7002;DHT22;3541;53.230;10.518;2022-11-20T05:06:17;1.90;99.90
7002;DHT22;3541;53.230;10.518;2022-11-20T05:08:44;1.90;99.90
7002;DHT22;3541;53.230;10.518;2022-11-20T05:11:13;1.90;99.90
7002;DHT22;3541;53.230;10.518;2022-11-20T05:13:40;1.90;99.90
7002;DHT22;3541;53.230;10.518;2022-11-20T05:16:10;2.00;99.90
7002;DHT22;3541;53.230;10.518;2022-11-20T05:18:38;2.00;99.90
7002;DHT22;3541;53.230;10.518;2022-11-20T05:21:05;1.90;99.90
7002;DHT22;3541;53.230;10.518;2022-11-20T05:23:33;1.90;99.90
7002;DHT22;3541;53.230;10.518;2022-11-20T05:26:00;1.90;99.90
7002;DHT22;3541;53.230;10.518;2022-11-20T05:28:27;2.00;99.90
7002;DHT22;3541;53.230;10.518;2022-11-20T05:30:54;2.00;99.90
7002;DHT22;3541;53.230;10.518;2022-11-20T05:33:22;2.00;99.90
7002;DHT22;3541;53.230;10.518;2022-11-20T05:35:49;2.00;99.90
7002;DHT22;3541;53.230;10.518;2022-11-20T05:38:15;2.00;99.90
7002;DHT22;3541;53.230;10.518;2022-11-20T05:40:42;2.00;99.90
7002;DHT22;3541;53.230;10.518;2022-11-20T05:43:09;2.00;99.90
7002;DHT22;3541;53.230;10.518;2022-11-20T05:45:35;2.00;99.90
7002;DHT22;3541;53.230;10.518;2022-11-20T05:48:02;2.00;99.90
7002;DHT22;3541;53.230;10.518;2022-11-20T05:50:30;1.80;99.90
7002;DHT22;3541;53.230;10.518;2022-11-20T05:52:58;1.80;99.90
7002;DHT22;3541;53.230;10.518;2022-11-20T05:55:24;1.80;99.90
7002;DHT22;3541;53.230;10.518;2022-11-20T05:57:52;1.80;99.90
7002;DHT22;3541;53.230;10.518;2022-11-20T06:00:19;1.90;99.90
7002;DHT22;3541;53.230;10.518;2022-11-20T06:02:45;1.90;99.90
7002;DHT22;3541;53.230;10.518;2022-11-20T06:05:12;2.00;99.90
7002;DHT22;3541;53.230;10.518;2022-11-20T06:07:40;1.90;99.90
7002;DHT22;3541;53.230;10.518;2022-11-20T06:10:07;1.80;99.90
7002;DHT22;3541;53.230;10.518;2022-11-20T06:12:33;1.90;99.90
7002;DHT22;3541;53.230;10.518;2022-11-20T06:15:00;1.80;99.90
7002;DHT22;3541;53.230;10.518;2022-11-20T06:17:26;1.90;99.90
7002;DHT22;3541;53.230;10.518;2022-11-20T06:19:53;1.90;99.90
7002;DHT22;3541;53.230;10.518;2022-11-20T06:22:20;1.90;99.90
7002;DHT22;3541;53.230;10.518;2022-11-20T06:24:48;1.90;99.90
7002;DHT22;3541;53.230;10.518;2022-11-20T06:27:15;2.00;99.90
7002;DHT22;3541;53.230;10.518;2022-11-20T06:29:41;1.90;99.90
7002;DHT22;3541;53.230;10.518;2022-11-20T06:32:08;1.90;99.90
7002;DHT22;3541;53.230;10.518;2022-11-20T06:34:35;1.70;99.90
7002;DHT22;3541;53.230;10.518;2022-11-20T06:37:01;1.80;99.90
7002;DHT22;3541;53.230;10.518;2022-11-20T06:39:28;1.60;99.90
7002;DHT22;3541;53.230;10.518;2022-11-20T06:41:56;1.60;99.90
7002;DHT22;3541;53.230;10.518;2022-11-20T06:44:22;1.60;99.90
7002;DHT22;3541;53.230;10.518;2022-11-20T06:46:50;1.60;99.90
7002;DHT22;3541;53.230;10.518;2022-11-20T06:49:16;1.70;99.90
7002;DHT22;3541;53.230;10.518;2022-11-20T06:51:43;1.70;99.90
7002;DHT22;3541;53.230;10.518;2022-11-20T06:54:09;1.70;99.90
7002;DHT22;3541;53.230;10.518;2022-11-20T06:56:36;1.70;99.90
7002;DHT22;3541;53.230;10.518;2022-11-20T06:59:05;1.70;99.90
7002;DHT22;3541;53.230;10.518;2022-11-20T07:01:32;1.70;99.90
7002;DHT22;3541;53.230;10.518;2022-11-20T07:03:59;1.70;99.90
7002;DHT22;3541;53.230;10.518;2022-11-20T07:06:25;1.70;99.90
7002;DHT22;3541;53.230;10.518;2022-11-20T07:08:52;1.70;99.90
7002;DHT22;3541;53.230;10.518;2022-11-20T07:11:19;1.80;99.90
7002;DHT22;3541;53.230;10.518;2022-11-20T07:13:45;1.90;99.90
7002;DHT22;3541;53.230;10.518;2022-11-20T07:16:13;1.90;99.90
7002;DHT22;3541;53.230;10.518;2022-11-20T07:18:40;1.90;99.90
7002;DHT22;3541;53.230;10.518;2022-11-20T07:21:08;1.80;99.90
7002;DHT22;3541;53.230;10.518;2022-11-20T07:23:35;1.80;99.90
7002;DHT22;3541;53.230;10.518;2022-11-20T07:26:03;1.90;99.90
7002;DHT22;3541;53.230;10.518;2022-11-20T07:28:30;1.90;99.90
7002;DHT22;3541;53.230;10.518;2022-11-20T07:30:56;1.90;99.90
7002;DHT22;3541;53.230;10.518;2022-11-20T07:33:24;1.90;99.90
7002;DHT22;3541;53.230;10.518;2022-11-20T07:35:51;1.80;99.90
7002;DHT22;3541;53.230;10.518;2022-11-20T07:38:18;1.70;99.90
7002;DHT22;3541;53.230;10.518;2022-11-20T07:40:44;1.80;99.90
7002;DHT22;3541;53.230;10.518;2022-11-20T07:43:11;1.80;99.90
7002;DHT22;3541;53.230;10.518;2022-11-20T07:45:38;1.80;99.90
7002;DHT22;3541;53.230;10.518;2022-11-20T07:48:05;1.70;99.90
7002;DHT22;3541;53.230;10.518;2022-11-20T07:50:33;1.80;99.90
7002;DHT22;3541;53.230;10.518;2022-11-20T07:53:03;1.80;99.90
7002;DHT22;3541;53.230;10.518;2022-11-20T07:55:30;1.90;99.90
7002;DHT22;3541;53.230;10.518;2022-11-20T07:57:58;1.80;99.90
7002;DHT22;3541;53.230;10.518;2022-11-20T08:00:25;1.90;99.90
7002;DHT22;3541;53.230;10.518;2022-11-20T08:02:52;1.90;99.90
7002;DHT22;3541;53.230;10.518;2022-11-20T08:05:19;2.00;99.90
7002;DHT22;3541;53.230;10.518;2022-11-20T08:07:47;2.00;99.90
7002;DHT22;3541;53.230;10.518;2022-11-20T08:10:14;2.10;99.90
7002;DHT22;3541;53.230;10.518;2022-11-20T08:12:45;2.10;99.90
7002;DHT22;3541;53.230;10.518;2022-11-20T08:15:30;2.20;99.90
7002;DHT22;3541;53.230;10.518;2022-11-20T08:18:01;2.10;99.90
7002;DHT22;3541;53.230;10.518;2022-11-20T08:20:28;2.10;99.90
7002;DHT22;3541;53.230;10.518;2022-11-20T08:22:59;2.20;99.90
7002;DHT22;3541;53.230;10.518;2022-11-20T08:25:27;2.20;99.90
7002;DHT22;3541;53.230;10.518;2022-11-20T08:27:56;2.30;99.90
7002;DHT22;3541;53.230;10.518;2022-11-20T08:30:22;2.30;99.90
7002;DHT22;3541;53.230;10.518;2022-11-20T08:32:50;2.20;99.90
7002;DHT22;3541;53.230;10.518;2022-11-20T08:35:17;2.30;99.90
7002;DHT22;3541;53.230;10.518;2022-11-20T08:37:46;2.30;99.90
7002;DHT22;3541;53.230;10.518;2022-11-20T08:40:14;2.30;99.90
7002;DHT22;3541;53.230;10.518;2022-11-20T08:42:46;2.30;99.90
7002;DHT22;3541;53.230;10.518;2022-11-20T08:45:13;2.40;99.90
7002;DHT22;3541;53.230;10.518;2022-11-20T08:47:40;2.20;99.90
7002;DHT22;3541;53.230;10.518;2022-11-20T08:50:08;2.30;99.90
7002;DHT22;3541;53.230;10.518;2022-11-20T08:52:34;2.30;99.90
7002;DHT22;3541;53.230;10.518;2022-11-20T08:55:01;2.40;99.90
7002;DHT22;3541;53.230;10.518;2022-11-20T08:57:31;2.30;99.90
7002;DHT22;3541;53.230;10.518;2022-11-20T08:59:57;2.30;99.90
7002;DHT22;3541;53.230;10.518;2022-11-20T09:02:24;2.20;99.90
7002;DHT22;3541;53.230;10.518;2022-11-20T09:04:51;2.30;99.90
7002;DHT22;3541;53.230;10.518;2022-11-20T09:07:18;2.30;99.90
7002;DHT22;3541;53.230;10.518;2022-11-20T09:09:45;2.40;99.90
7002;DHT22;3541;53.230;10.518;2022-11-20T09:12:11;2.40;99.90
7002;DHT22;3541;53.230;10.518;2022-11-20T09:14:40;2.40;99.90
7002;DHT22;3541;53.230;10.518;2022-11-20T09:17:06;2.40;99.90
7002;DHT22;3541;53.230;10.518;2022-11-20T09:19:33;2.40;99.90
7002;DHT22;3541;53.230;10.518;2022-11-20T09:22:00;2.40;99.90
7002;DHT22;3541;53.230;10.518;2022-11-20T09:24:27;2.50;99.90
7002;DHT22;3541;53.230;10.518;2022-11-20T09:26:54;2.60;99.90
7002;DHT22;3541;53.230;10.518;2022-11-20T09:29:20;2.60;99.90
7002;DHT22;3541;53.230;10.518;2022-11-20T09:31:48;2.70;99.90
7002;DHT22;3541;53.230;10.518;2022-11-20T09:34:15;2.70;99.90
7002;DHT22;3541;53.230;10.518;2022-11-20T09:36:42;2.60;99.90
7002;DHT22;3541;53.230;10.518;2022-11-20T09:39:08;2.70;99.90
7002;DHT22;3541;53.230;10.518;2022-11-20T09:41:59;2.70;99.90
7002;DHT22;3541;53.230;10.518;2022-11-20T09:44:38;2.80;99.90
7002;DHT22;3541;53.230;10.518;2022-11-20T09:47:14;2.80;99.90
7002;DHT22;3541;53.230;10.518;2022-11-20T09:49:55;2.90;99.90
7002;DHT22;3541;53.230;10.518;2022-11-20T09:52:31;2.90;99.90
7002;DHT22;3541;53.230;10.518;2022-11-20T09:55:01;2.90;99.90
7002;DHT22;3541;53.230;10.518;2022-11-20T09:57:32;2.80;99.90
7002;DHT22;3541;53.230;10.518;2022-11-20T10:00:03;2.80;99.90
7002;DHT22;3541;53.230;10.518;2022-11-20T10:02:39;2.80;99.90
7002;DHT22;3541;53.230;10.518;2022-11-20T10:05:11;2.80;99.90
7002;DHT22;3541;53.230;10.518;2022-11-20T10:07:42;2.90;99.90
7002;DHT22;3541;53.230;10.518;2022-11-20T10:10:14;2.90;99.90
7002;DHT22;3541;53.230;10.518;2022-11-20T10:12:57;2.90;99.90
7002;DHT22;3541;53.230;10.518;2022-11-20T10:15:33;2.90;99.90
7002;DHT22;3541;53.230;10.518;2022-11-20T10:18:21;3.00;99.90
7002;DHT22;3541;53.230;10.518;2022-11-20T10:20:53;3.10;99.90
7002;DHT22;3541;53.230;10.518;2022-11-20T10:23:42;3.10;99.90
7002;DHT22;3541;53.230;10.518;2022-11-20T10:26:20;3.00;99.90
7002;DHT22;3541;53.230;10.518;2022-11-20T10:29:01;3.10;99.90
7002;DHT22;3541;53.230;10.518;2022-11-20T10:31:33;3.10;99.90
7002;DHT22;3541;53.230;10.518;2022-11-20T10:34:06;3.00;99.90
7002;DHT22;3541;53.230;10.518;2022-11-20T10:36:36;3.00;99.90
7002;DHT22;3541;53.230;10.518;2022-11-20T10:39:21;3.10;99.90
7002;DHT22;3541;53.230;10.518;2022-11-20T10:41:51;3.20;99.90
7002;DHT22;3541;53.230;10.518;2022-11-20T10:44:21;3.10;99.90
7002;DHT22;3541;53.230;10.518;2022-11-20T10:47:03;3.20;99.90
7002;DHT22;3541;53.230;10.518;2022-11-20T10:49:33;3.30;99.90
7002;DHT22;3541;53.230;10.518;2022-11-20T10:52:06;3.40;99.90
7002;DHT22;3541;53.230;10.518;2022-11-20T10:54:41;3.50;99.90
7002;DHT22;3541;53.230;10.518;2022-11-20T10:57:20;3.50;99.90
7002;DHT22;3541;53.230;10.518;2022-11-20T11:00:04;3.60;99.90
7002;DHT22;3541;53.230;10.518;2022-11-20T11:02:35;3.70;99.90
7002;DHT22;3541;53.230;10.518;2022-11-20T11:05:17;3.80;99.90
7002;DHT22;3541;53.230;10.518;2022-11-20T11:07:45;3.70;99.90
7002;DHT22;3541;53.230;10.518;2022-11-20T11:10:21;3.70;99.90
7002;DHT22;3541;53.230;10.518;2022-11-20T11:12:49;3.70;99.90
7002;DHT22;3541;53.230;10.518;2022-11-20T11:15:27;3.80;99.90
7002;DHT22;3541;53.230;10.518;2022-11-20T11:17:54;3.80;99.90
7002;DHT22;3541;53.230;10.518;2022-11-20T11:20:25;3.70;99.90
7002;DHT22;3541;53.230;10.518;2022-11-20T11:22:53;3.70;99.90
7002;DHT22;3541;53.230;10.518;2022-11-20T11:25:27;3.70;99.90
7002;DHT22;3541;53.230;10.518;2022-11-20T11:27:57;3.60;99.90
7002;DHT22;3541;53.230;10.518;2022-11-20T11:30:25;3.60;99.90
7002;DHT22;3541;53.230;10.518;2022-11-20T11:33:03;3.50;99.90
7002;DHT22;3541;53.230;10.518;2022-11-20T11:35:32;3.50;99.90
7002;DHT22;3541;53.230;10.518;2022-11-20T11:38:04;3.50;99.90
7002;DHT22;3541;53.230;10.518;2022-11-20T11:40:32;3.50;99.90
7002;DHT22;3541;53.230;10.518;2022-11-20T11:43:02;3.60;99.90
7002;DHT22;3541;53.230;10.518;2022-11-20T11:45:30;3.50;99.90
7002;DHT22;3541;53.230;10.518;2022-11-20T11:47:58;3.40;99.90
7002;DHT22;3541;53.230;10.518;2022-11-20T11:50:28;3.50;99.90
7002;DHT22;3541;53.230;10.518;2022-11-20T11:53:03;3.60;99.90
7002;DHT22;3541;53.230;10.518;2022-11-20T11:55:36;3.50;99.90
7002;DHT22;3541;53.230;10.518;2022-11-20T11:58:13;3.50;99.90
7002;DHT22;3541;53.230;10.518;2022-11-20T12:00:48;3.60;99.90
7002;DHT22;3541;53.230;10.518;2022-11-20T12:03:19;3.60;99.90
7002;DHT22;3541;53.230;10.518;2022-11-20T12:05:50;3.40;99.90
7002;DHT22;3541;53.230;10.518;2022-11-20T12:08:24;3.50;99.90
7002;DHT22;3541;53.230;10.518;2022-11-20T12:10:56;3.40;99.90
7002;DHT22;3541;53.230;10.518;2022-11-20T12:13:34;3.30;99.90
7002;DHT22;3541;53.230;10.518;2022-11-20T12:16:04;3.40;99.90
7002;DHT22;3541;53.230;10.518;2022-11-20T12:18:31;3.40;99.90
7002;DHT22;3541;53.230;10.518;2022-11-20T12:21:06;3.40;99.90
7002;DHT22;3541;53.230;10.518;2022-11-20T12:23:43;3.40;99.90
7002;DHT22;3541;53.230;10.518;2022-11-20T12:26:17;3.50;99.90
7002;DHT22;3541;53.230;10.518;2022-11-20T12:28:56;3.60;99.90
7002;DHT22;3541;53.230;10.518;2022-11-20T12:31:41;3.80;99.90
7002;DHT22;3541;53.230;10.518;2022-11-20T12:34:36;3.90;99.90
7002;DHT22;3541;53.230;10.518;2022-11-20T12:37:13;3.90;99.90
7002;DHT22;3541;53.230;10.518;2022-11-20T12:39:47;3.80;99.90
7002;DHT22;3541;53.230;10.518;2022-11-20T12:42:25;3.80;99.90
7002;DHT22;3541;53.230;10.518;2022-11-20T12:48:25;3.70;99.90
7002;DHT22;3541;53.230;10.518;2022-11-20T12:51:09;3.70;99.90
7002;DHT22;3541;53.230;10.518;2022-11-20T12:53:43;3.70;99.90
7002;DHT22;3541;53.230;10.518;2022-11-20T12:56:25;3.70;99.90
7002;DHT22;3541;53.230;10.518;2022-11-20T12:59:06;3.80;99.90
7002;DHT22;3541;53.230;10.518;2022-11-20T13:01:40;3.70;99.90
7002;DHT22;3541;53.230;10.518;2022-11-20T13:04:23;3.80;99.90
7002;DHT22;3541;53.230;10.518;2022-11-20T13:06:58;3.80;99.90
7002;DHT22;3541;53.230;10.518;2022-11-20T13:09:25;3.80;99.90
7002;DHT22;3541;53.230;10.518;2022-11-20T13:12:02;3.80;99.90
7002;DHT22;3541;53.230;10.518;2022-11-20T13:14:36;3.80;99.90
7002;DHT22;3541;53.230;10.518;2022-11-20T13:17:07;3.70;99.90
7002;DHT22;3541;53.230;10.518;2022-11-20T13:19:36;3.60;99.90
7002;DHT22;3541;53.230;10.518;2022-11-20T13:22:03;3.50;99.90
7002;DHT22;3541;53.230;10.518;2022-11-20T13:24:31;3.60;99.90
7002;DHT22;3541;53.230;10.518;2022-11-20T13:27:18;3.60;99.90
7002;DHT22;3541;53.230;10.518;2022-11-20T13:29:57;3.60;99.90
7002;DHT22;3541;53.230;10.518;2022-11-20T13:32:26;3.50;99.90
7002;DHT22;3541;53.230;10.518;2022-11-20T13:34:58;3.50;99.90
7002;DHT22;3541;53.230;10.518;2022-11-20T13:37:28;3.50;99.90
7002;DHT22;3541;53.230;10.518;2022-11-20T13:40:12;3.50;99.90
7002;DHT22;3541;53.230;10.518;2022-11-20T13:42:45;3.50;99.90
7002;DHT22;3541;53.230;10.518;2022-11-20T13:45:26;3.50;99.90
7002;DHT22;3541;53.230;10.518;2022-11-20T13:47:54;3.40;99.90
7002;DHT22;3541;53.230;10.518;2022-11-20T13:50:37;3.40;99.90
7002;DHT22;3541;53.230;10.518;2022-11-20T13:53:10;3.50;99.90
7002;DHT22;3541;53.230;10.518;2022-11-20T13:55:44;3.50;99.90
7002;DHT22;3541;53.230;10.518;2022-11-20T13:58:33;3.50;99.90
7002;DHT22;3541;53.230;10.518;2022-11-20T14:01:09;3.40;99.90
7002;DHT22;3541;53.230;10.518;2022-11-20T14:03:38;3.50;99.90
7002;DHT22;3541;53.230;10.518;2022-11-20T14:06:12;3.50;99.90
7002;DHT22;3541;53.230;10.518;2022-11-20T14:08:43;3.40;99.90
7002;DHT22;3541;53.230;10.518;2022-11-20T14:11:15;3.40;99.90
7002;DHT22;3541;53.230;10.518;2022-11-20T14:13:54;3.40;99.90
7002;DHT22;3541;53.230;10.518;2022-11-20T14:16:21;3.30;99.90
7002;DHT22;3541;53.230;10.518;2022-11-20T14:18:48;3.30;99.90
7002;DHT22;3541;53.230;10.518;2022-11-20T14:21:22;3.20;99.90
7002;DHT22;3541;53.230;10.518;2022-11-20T14:23:52;3.10;99.90
7002;DHT22;3541;53.230;10.518;2022-11-20T14:26:19;3.10;99.90
7002;DHT22;3541;53.230;10.518;2022-11-20T14:28:48;3.10;99.90
7002;DHT22;3541;53.230;10.518;2022-11-20T14:31:22;3.20;99.90
7002;DHT22;3541;53.230;10.518;2022-11-20T14:33:51;3.20;99.90
7002;DHT22;3541;53.230;10.518;2022-11-20T14:36:20;3.20;99.90
7002;DHT22;3541;53.230;10.518;2022-11-20T14:38:47;3.10;99.90
7002;DHT22;3541;53.230;10.518;2022-11-20T14:41:18;3.10;99.90
7002;DHT22;3541;53.230;10.518;2022-11-20T14:43:46;3.10;99.90
7002;DHT22;3541;53.230;10.518;2022-11-20T14:46:13;3.10;99.90
7002;DHT22;3541;53.230;10.518;2022-11-20T14:48:45;3.10;99.90
7002;DHT22;3541;53.230;10.518;2022-11-20T14:51:25;3.10;99.90
7002;DHT22;3541;53.230;10.518;2022-11-20T14:53:52;3.00;99.90
7002;DHT22;3541;53.230;10.518;2022-11-20T14:56:22;3.00;99.90
7002;DHT22;3541;53.230;10.518;2022-11-20T14:58:55;3.00;99.90
7002;DHT22;3541;53.230;10.518;2022-11-20T15:01:26;3.00;99.90
7002;DHT22;3541;53.230;10.518;2022-11-20T15:04:00;3.00;99.90
7002;DHT22;3541;53.230;10.518;2022-11-20T15:06:27;3.00;99.90
7002;DHT22;3541;53.230;10.518;2022-11-20T15:08:55;3.00;99.90
7002;DHT22;3541;53.230;10.518;2022-11-20T15:11:28;3.10;99.90
7002;DHT22;3541;53.230;10.518;2022-11-20T15:13:55;3.10;99.90
7002;DHT22;3541;53.230;10.518;2022-11-20T15:16:23;3.10;99.90
7002;DHT22;3541;53.230;10.518;2022-11-20T15:18:51;3.00;99.90
7002;DHT22;3541;53.230;10.518;2022-11-20T15:21:20;3.00;99.90
7002;DHT22;3541;53.230;10.518;2022-11-20T15:23:47;3.00;99.90
7002;DHT22;3541;53.230;10.518;2022-11-20T15:26:15;2.90;99.90
7002;DHT22;3541;53.230;10.518;2022-11-20T15:28:44;2.90;99.90
7002;DHT22;3541;53.230;10.518;2022-11-20T15:31:14;2.90;99.90
7002;DHT22;3541;53.230;10.518;2022-11-20T15:33:41;2.80;99.90
7002;DHT22;3541;53.230;10.518;2022-11-20T15:36:08;2.80;99.90
7002;DHT22;3541;53.230;10.518;2022-11-20T15:38:36;2.80;99.90
7002;DHT22;3541;53.230;10.518;2022-11-20T15:41:03;2.80;99.90
7002;DHT22;3541;53.230;10.518;2022-11-20T15:43:30;2.70;99.90
7002;DHT22;3541;53.230;10.518;2022-11-20T15:46:00;2.60;99.90
7002;DHT22;3541;53.230;10.518;2022-11-20T15:48:29;2.60;99.90
7002;DHT22;3541;53.230;10.518;2022-11-20T15:51:01;2.60;99.90
7002;DHT22;3541;53.230;10.518;2022-11-20T15:53:29;2.60;99.90
7002;DHT22;3541;53.230;10.518;2022-11-20T15:55:57;2.60;99.90
7002;DHT22;3541;53.230;10.518;2022-11-20T15:58:24;2.70;99.90
7002;DHT22;3541;53.230;10.518;2022-11-20T16:00:52;2.60;99.90
7002;DHT22;3541;53.230;10.518;2022-11-20T16:03:19;2.50;99.90
7002;DHT22;3541;53.230;10.518;2022-11-20T16:05:46;2.40;99.90
7002;DHT22;3541;53.230;10.518;2022-11-20T16:08:12;2.50;99.90
7002;DHT22;3541;53.230;10.518;2022-11-20T16:10:40;2.60;99.90
7002;DHT22;3541;53.230;10.518;2022-11-20T16:13:13;2.60;99.90
7002;DHT22;3541;53.230;10.518;2022-11-20T16:16:00;2.60;99.90
7002;DHT22;3541;53.230;10.518;2022-11-20T16:18:29;2.60;99.90
7002;DHT22;3541;53.230;10.518;2022-11-20T16:20:56;2.60;99.90